Helm, CA

7:45 AM PST on December 26, 2014 (GMT -0800)
GFWS112 | Change Station
CLOSE
Current Station
Personal Weather Station
Location: Kerman, CA
Elevation: 197 ft
Nearby Weather Stations
Active Advisory: Freeze Watch

Elev 197 ft 36.65 °N, 120.09 °W | Updated 6 seconds ago

Clear
Clear
32.1 °F
Feels Like 32 °F
N
0.0
Wind Variable Wind from North
Gusts 3.0 mph

Today
High -- | Low -- °F
--% Chance of Precip.
Yesterday
High -- | Low -- °F
Precip. -- in
7:10 AM 4:51 PM
Waxing Crescent, 27% visible
Pressure 30.14 in
Visibility 7.0 miles
Clouds Clear
Windchill 32 °F
Dew Point 31 °F
Humidity 96%
Rainfall 0.00 in
Snow Depth Not available.
UV 0 out of 12
Pollen 2.60 out of 12
Air Quality Not available.
Flu Activity Not available.
METAR KNLC 261456Z 34007KT 7SM CLR 01/M01 A3014 RMK AO2 SLP207 T00061006 53017 $

More Conditions Fewer Conditions

Pressure 30.14 in
Visibility 7.0 miles
Clouds Clear
Windchill 32 °F
Dew Point 31 °F
Humidity 96%
Rainfall 0.00 in
Snow Depth Not available.
UV 0 out of 12
Pollen 2.60 out of 12
Air Quality Not available.
Flu Activity Not available.
METAR KNLC 261456Z 34007KT 7SM CLR 01/M01 A3014 RMK AO2 SLP207 T00061006 53017 $

More Conditions Fewer Conditions

10-Day Weather Forecast

Almanac

Astronomy

Dec. 26, 2014 Rise Set
Actual Time
Civil Twilight
Nautical Twilight
Astronomical Twilight
Moon
Length of Visible Light
Length of Day
Tomorrow will be .
, % of the Moon is Illuminated

Today's Extremes

State Highs State Lows

Community

WunderPhotos

Upload Photos

1,780,620 photos uploaded!

WunderBlogs® & News

Nearby

Air Quality

  Air Quality AQ Index Pollutant
Not available.

Snow Depth

Station Depth Elevation

Earthquake Activity

City Distance Mag. Time & Date
Minimum magnitude displayed is 2.5.

Coastal Water Temperatures

Place Temperature

Nearby Weather Stations